Time;durP1;ratioP1;P1;durP2;ratioP2;P2;SDS_P1;SDS_P2;PMS_P1;PMS_P2;Temp;Humidity;BMP_temperature;BMP_pressure;BME280_temperature;BME280_humidity;BME280_pressure;Samples;Min_cycle;Max_cycle;Signal;HPM_P1;HPM_P2
2022/06/01 00:01:36;;;;;;;0.30;0.30;;;12.50;99.90;;;;;;5055603;28;20193;-73
2022/06/01 00:04:09;;;;;;;1.27;0.30;;;12.60;99.90;;;;;;5052035;28;20715;-73
2022/06/01 00:06:40;;;;;;;1.15;0.20;;;12.60;99.90;;;;;;5053320;28;20202;-75
2022/06/01 00:09:11;;;;;;;0.30;0.30;;;12.60;99.90;;;;;;5052119;28;20225;-73
2022/06/01 00:11:42;;;;;;;0.20;0.20;;;12.70;99.90;;;;;;5054789;28;20193;-75
2022/06/01 00:14:14;;;;;;;0.25;0.25;;;12.70;99.90;;;;;;5053308;28;20236;-75
2022/06/01 00:16:44;;;;;;;0.20;0.20;;;12.80;99.90;;;;;;5055084;28;20243;-76
2022/06/01 00:19:17;;;;;;;0.20;0.20;;;12.90;99.90;;;;;;5053289;28;20213;-74
2022/06/01 00:24:37;;;;;;;1.70;0.30;;;13.00;99.90;;;;;;5053745;28;20213;-75
2022/06/01 00:27:08;;;;;;;1.30;0.25;;;13.10;99.90;;;;;;5054934;28;20194;-72
2022/06/01 00:29:39;;;;;;;0.68;0.30;;;13.20;99.90;;;;;;5058648;28;20193;-74
2022/06/01 00:32:12;;;;;;;0.45;0.32;;;13.20;99.90;;;;;;5060175;28;20211;-74
2022/06/01 00:34:45;;;;;;;0.20;0.20;;;13.20;99.90;;;;;;5049283;28;20276;-74
2022/06/01 00:37:17;;;;;;;0.45;0.20;;;13.20;99.90;;;;;;5049271;28;20243;-75
2022/06/01 00:39:48;;;;;;;0.85;0.28;;;13.20;99.90;;;;;;5054186;28;20700;-74
2022/06/01 00:42:20;;;;;;;1.13;0.25;;;13.30;99.90;;;;;;5053327;28;20194;-78
2022/06/01 00:44:51;;;;;;;2.03;0.30;;;13.20;99.90;;;;;;5052716;28;20197;-74
2022/06/01 00:47:23;;;;;;;1.60;0.30;;;13.30;99.90;;;;;;5054521;28;20193;-74
2022/06/01 00:50:00;;;;;;;0.40;0.30;;;13.30;99.90;;;;;;5054900;28;20548;-73
2022/06/01 00:52:45;;;;;;;2.45;0.30;;;13.40;99.90;;;;;;5054725;28;20185;-74
2022/06/01 00:55:20;;;;;;;2.25;0.20;;;13.50;99.90;;;;;;5054542;28;20193;-74
2022/06/01 00:57:53;;;;;;;1.45;0.20;;;13.60;99.90;;;;;;5047810;28;20193;-74
2022/06/01 01:00:26;;;;;;;2.50;0.20;;;13.70;99.90;;;;;;5054036;28;20212;-73
2022/06/01 01:03:00;;;;;;;1.13;0.43;;;13.60;99.90;;;;;;5054429;28;20193;-75
2022/06/01 01:05:35;;;;;;;0.77;0.40;;;13.70;99.90;;;;;;5054370;28;20186;-77
2022/06/01 01:08:07;;;;;;;1.55;0.38;;;13.80;99.90;;;;;;5052835;28;20304;-73
2022/06/01 01:10:40;;;;;;;0.22;0.22;;;13.80;99.90;;;;;;5054169;28;20480;-73
2022/06/01 01:13:14;;;;;;;0.68;0.40;;;13.80;99.90;;;;;;5054439;28;20201;-73
2022/06/01 01:15:52;;;;;;;0.30;0.30;;;13.90;99.90;;;;;;5053926;28;20239;-74
2022/06/01 01:18:25;;;;;;;0.43;0.20;;;14.00;99.90;;;;;;5053688;28;20186;-72
2022/06/01 01:21:05;;;;;;;2.63;0.20;;;14.10;99.90;;;;;;5047184;28;20217;-76
2022/06/01 01:23:47;;;;;;;0.30;0.30;;;14.20;99.90;;;;;;5054043;28;20200;-74
2022/06/01 01:26:20;;;;;;;0.20;0.20;;;14.10;99.90;;;;;;5054144;28;20274;-79
2022/06/01 01:28:52;;;;;;;0.20;0.20;;;14.10;99.90;;;;;;5053796;28;20193;-72
2022/06/01 01:31:25;;;;;;;1.10;0.22;;;14.30;99.90;;;;;;5054004;28;20267;-73
2022/06/01 01:33:57;;;;;;;0.10;0.10;;;14.30;99.90;;;;;;5046503;28;20633;-74
2022/06/01 01:36:34;;;;;;;1.65;0.30;;;14.30;99.90;;;;;;5054134;28;20201;-75
2022/06/01 01:39:09;;;;;;;0.35;0.30;;;14.20;99.90;;;;;;5053636;28;20201;-76
2022/06/01 01:41:44;;;;;;;0.20;0.20;;;14.10;99.90;;;;;;5053488;28;20190;-77
2022/06/01 01:44:17;;;;;;;2.75;0.40;;;14.20;99.90;;;;;;5053686;28;20185;-73
2022/06/01 01:46:49;;;;;;;0.20;0.20;;;14.20;99.90;;;;;;5053568;28;20652;-73
2022/06/01 01:49:22;;;;;;;1.45;0.20;;;14.20;99.90;;;;;;5053479;28;20205;-74
2022/06/01 01:51:54;;;;;;;0.40;0.10;;;14.20;99.90;;;;;;5053789;28;20687;-71
2022/06/01 01:54:34;;;;;;;1.85;0.30;;;14.20;99.90;;;;;;5053550;28;20240;-72
2022/06/01 01:57:33;;;;;;;0.35;0.30;;;14.10;99.90;;;;;;5046220;28;20640;-77
2022/06/01 02:00:14;;;;;;;2.17;0.20;;;14.20;99.90;;;;;;5045526;28;20210;-73
2022/06/01 02:02:53;;;;;;;1.25;0.20;;;14.20;99.90;;;;;;5053019;28;20194;-76
2022/06/01 02:08:25;;;;;;;0.65;0.60;;;14.20;99.90;;;;;;5043728;28;20220;-72
2022/06/01 02:13:55;;;;;;;0.80;0.30;;;14.30;99.90;;;;;;5053017;28;20216;-75
2022/06/01 02:16:30;;;;;;;0.88;0.22;;;14.40;99.90;;;;;;5053134;28;20594;-76
2022/06/01 02:19:03;;;;;;;0.50;0.20;;;14.30;99.90;;;;;;5052958;28;20537;-84
2022/06/01 02:21:34;;;;;;;0.52;0.30;;;14.40;99.90;;;;;;5052929;28;20223;-74
2022/06/01 02:24:04;;;;;;;1.15;0.30;;;14.40;99.90;;;;;;5052807;28;20200;-75
2022/06/01 02:26:37;;;;;;;0.10;0.10;;;14.40;99.90;;;;;;5053119;28;20555;-75
2022/06/01 02:29:15;;;;;;;0.30;0.10;;;14.40;99.90;;;;;;5049287;28;20645;-77
2022/06/01 02:31:47;;;;;;;1.30;0.20;;;14.30;99.90;;;;;;5052706;28;20268;-74
2022/06/01 02:34:19;;;;;;;1.73;0.65;;;14.20;99.90;;;;;;5052904;28;20205;-76
2022/06/01 02:36:50;;;;;;;0.50;0.20;;;14.20;99.90;;;;;;5052685;28;20273;-74
2022/06/01 02:39:22;;;;;;;7.38;0.30;;;14.20;99.90;;;;;;5052710;28;20587;-74
2022/06/01 02:44:41;;;;;;;0.40;0.20;;;14.20;99.90;;;;;;5049701;28;20208;-75
2022/06/01 02:47:12;;;;;;;1.83;0.50;;;14.30;99.90;;;;;;5053058;28;20684;-72
2022/06/01 02:49:42;;;;;;;1.30;0.20;;;14.30;99.90;;;;;;5052704;28;20220;-76
2022/06/01 02:52:13;;;;;;;1.02;0.40;;;14.30;99.90;;;;;;5052576;28;20566;-73
2022/06/01 02:54:44;;;;;;;0.43;0.20;;;14.20;99.90;;;;;;5052793;28;20655;-73
2022/06/01 02:57:15;;;;;;;0.70;0.20;;;14.10;99.90;;;;;;5052331;28;20194;-73
2022/06/01 02:59:47;;;;;;;0.68;0.28;;;14.00;99.90;;;;;;5052643;28;20658;-74
2022/06/01 03:02:19;;;;;;;1.15;0.50;;;13.90;99.90;;;;;;5052428;28;20212;-73
2022/06/01 03:04:49;;;;;;;0.73;0.30;;;13.90;99.90;;;;;;5052705;28;20229;-72
2022/06/01 03:07:20;;;;;;;1.85;0.40;;;13.90;99.90;;;;;;5051103;28;20217;-73
2022/06/01 03:09:50;;;;;;;1.17;0.30;;;13.90;99.90;;;;;;5052571;28;20542;-74
2022/06/01 03:12:22;;;;;;;0.30;0.20;;;14.00;99.90;;;;;;5052374;28;20233;-76
2022/06/01 03:14:54;;;;;;;5.35;0.40;;;14.20;99.90;;;;;;5046143;28;20693;-72
2022/06/01 03:17:25;;;;;;;0.82;0.30;;;14.30;99.90;;;;;;5040699;28;20633;-76
2022/06/01 03:19:56;;;;;;;0.40;0.30;;;14.30;99.90;;;;;;5052329;28;20213;-73
2022/06/01 03:22:27;;;;;;;1.17;0.40;;;14.30;99.90;;;;;;5050486;28;20181;-73
2022/06/01 03:24:57;;;;;;;0.40;0.30;;;14.30;99.90;;;;;;5044441;28;20194;-73
2022/06/01 03:27:28;;;;;;;1.80;0.40;;;14.30;99.90;;;;;;5052458;28;20190;-74
2022/06/01 03:30:00;;;;;;;2.65;0.55;;;14.30;99.90;;;;;;5044299;28;20202;-73
2022/06/01 03:32:31;;;;;;;3.13;0.20;;;14.30;99.90;;;;;;5051215;28;20186;-72
2022/06/01 03:35:02;;;;;;;1.10;0.20;;;14.30;99.90;;;;;;5049410;28;20197;-73
2022/06/01 03:37:33;;;;;;;0.88;0.40;;;14.30;99.90;;;;;;5047791;28;20581;-73
2022/06/01 03:40:05;;;;;;;0.20;0.20;;;14.40;99.90;;;;;;5048215;28;20206;-73
2022/06/01 03:42:35;;;;;;;0.47;0.30;;;14.40;99.90;;;;;;5054687;28;20186;-74
2022/06/01 03:47:56;;;;;;;0.70;0.30;;;14.40;99.90;;;;;;5056056;28;20340;-75
2022/06/01 03:50:29;;;;;;;3.60;0.30;;;14.40;99.90;;;;;;5055204;28;20293;-73
2022/06/01 03:53:00;;;;;;;1.20;0.30;;;14.50;99.90;;;;;;5053248;28;20194;-74
2022/06/01 03:55:31;;;;;;;0.20;0.20;;;14.50;99.90;;;;;;5054772;28;20284;-73
2022/06/01 03:58:02;;;;;;;0.55;0.32;;;14.60;99.90;;;;;;5052952;28;20204;-79
2022/06/01 04:00:34;;;;;;;0.77;0.20;;;14.50;99.90;;;;;;5048014;28;20217;-74
2022/06/01 04:03:05;;;;;;;0.22;0.20;;;14.50;99.90;;;;;;5054463;28;20554;-73
2022/06/01 04:05:36;;;;;;;1.92;0.30;;;14.50;99.90;;;;;;5050961;28;20700;-75
2022/06/01 04:08:07;;;;;;;1.77;0.40;;;14.70;99.90;;;;;;5052733;28;20259;-75
2022/06/01 04:10:39;;;;;;;3.25;0.38;;;14.70;99.90;;;;;;5055712;28;20653;-73
2022/06/01 04:13:10;;;;;;;4.05;0.70;;;14.60;99.90;;;;;;5055396;28;20236;-74
2022/06/01 04:15:43;;;;;;;0.63;0.30;;;14.60;99.90;;;;;;5053067;28;20198;-74
2022/06/01 04:18:14;;;;;;;0.20;0.20;;;14.40;99.90;;;;;;5049327;28;20540;-73
2022/06/01 04:20:45;;;;;;;1.38;0.57;;;14.40;99.90;;;;;;5053574;28;20232;-73
2022/06/01 04:23:16;;;;;;;0.22;0.22;;;14.30;99.90;;;;;;5053340;28;20197;-73
2022/06/01 04:25:47;;;;;;;0.90;0.20;;;14.30;99.90;;;;;;5053560;28;20186;-72
2022/06/01 04:28:18;;;;;;;0.47;0.30;;;14.30;99.90;;;;;;5052086;28;20185;-79
2022/06/01 04:30:50;;;;;;;0.90;0.40;;;14.20;99.90;;;;;;5052952;28;20612;-73
2022/06/01 04:33:22;;;;;;;1.45;0.30;;;14.30;99.90;;;;;;5053822;28;20217;-81
2022/06/01 04:35:52;;;;;;;2.83;0.40;;;14.30;99.90;;;;;;5053174;28;20201;-89
2022/06/01 04:38:23;;;;;;;3.65;0.30;;;14.30;99.90;;;;;;5052656;28;20205;-72
2022/06/01 04:40:55;;;;;;;1.05;0.47;;;14.30;99.90;;;;;;5051785;28;20614;-76
2022/06/01 04:43:26;;;;;;;4.05;1.40;;;14.30;99.90;;;;;;5053909;28;20211;-73
2022/06/01 04:45:59;;;;;;;0.57;0.30;;;14.30;99.90;;;;;;5053125;28;20197;-74
2022/06/01 04:48:30;;;;;;;0.63;0.40;;;14.30;99.90;;;;;;5050882;28;20244;-76
2022/06/01 04:51:01;;;;;;;2.08;0.43;;;14.30;99.90;;;;;;5050166;28;20276;-74
2022/06/01 04:53:32;;;;;;;0.45;0.45;;;14.20;99.90;;;;;;5048951;28;20198;-73
2022/06/01 04:56:03;;;;;;;1.30;0.47;;;14.20;99.90;;;;;;5046529;28;20260;-75
2022/06/01 04:58:34;;;;;;;2.53;0.40;;;14.10;99.90;;;;;;5049333;28;20203;-74
2022/06/01 05:01:06;;;;;;;1.92;0.40;;;14.10;99.90;;;;;;5050531;28;20229;-72
2022/06/01 05:03:37;;;;;;;1.20;0.30;;;14.20;99.90;;;;;;5044086;28;20305;-74
2022/06/01 05:06:08;;;;;;;1.20;0.45;;;14.20;99.90;;;;;;5048441;28;20727;-74
2022/06/01 05:08:38;;;;;;;1.85;0.40;;;14.20;99.90;;;;;;5048894;28;20217;-74
2022/06/01 05:11:09;;;;;;;1.95;0.40;;;14.10;99.90;;;;;;5044930;28;20189;-72
2022/06/01 05:13:40;;;;;;;0.73;0.40;;;14.10;99.90;;;;;;5047024;28;20186;-73
2022/06/01 05:16:12;;;;;;;0.47;0.30;;;14.10;99.90;;;;;;5052685;28;20185;-74
2022/06/01 05:18:43;;;;;;;0.90;0.50;;;14.10;99.90;;;;;;5049648;28;20188;-73
2022/06/01 05:21:14;;;;;;;13.13;7.45;;;14.10;99.90;;;;;;5051093;28;20214;-73
2022/06/01 05:23:44;;;;;;;16.35;8.90;;;14.00;99.90;;;;;;5049978;28;20185;-73
2022/06/01 05:26:15;;;;;;;11.43;6.47;;;14.00;99.90;;;;;;5052802;28;20186;-74
2022/06/01 05:28:46;;;;;;;3.95;2.30;;;14.00;99.90;;;;;;5045916;28;20190;-73
2022/06/01 05:31:18;;;;;;;5.32;1.70;;;14.00;99.90;;;;;;5051320;28;20189;-75
2022/06/01 05:33:51;;;;;;;1.25;0.68;;;14.00;99.90;;;;;;5052902;28;20184;-73
2022/06/01 05:36:22;;;;;;;1.13;0.50;;;14.00;99.90;;;;;;5048346;28;20192;-72
2022/06/01 05:38:53;;;;;;;2.35;0.40;;;14.00;99.90;;;;;;5051413;28;20193;-73
2022/06/01 05:41:23;;;;;;;1.75;0.40;;;13.80;99.90;;;;;;5046757;28;20272;-75
2022/06/01 05:43:54;;;;;;;1.45;0.50;;;13.90;99.90;;;;;;5048674;28;20193;-74
2022/06/01 05:46:28;;;;;;;2.63;0.45;;;13.90;99.90;;;;;;5046421;28;20198;-72
2022/06/01 05:48:58;;;;;;;1.90;0.43;;;13.90;99.90;;;;;;5049018;28;20229;-72
2022/06/01 05:51:29;;;;;;;1.00;0.40;;;13.90;99.90;;;;;;5050347;28;20190;-80
2022/06/01 05:54:00;;;;;;;0.52;0.40;;;13.90;99.90;;;;;;5048154;28;20208;-73
2022/06/01 05:56:30;;;;;;;0.40;0.30;;;13.90;99.90;;;;;;5050692;28;20194;-75
2022/06/01 05:59:01;;;;;;;0.40;0.32;;;13.80;99.90;;;;;;5049001;28;20193;-74
2022/06/01 06:01:34;;;;;;;1.00;0.50;;;13.80;99.90;;;;;;5047433;28;20214;-74
2022/06/01 06:04:05;;;;;;;2.30;0.50;;;13.70;99.90;;;;;;5047135;28;20247;-76
2022/06/01 06:06:35;;;;;;;0.82;0.30;;;13.80;99.90;;;;;;5046431;28;20205;-73
2022/06/01 06:09:08;;;;;;;2.40;0.40;;;13.70;99.90;;;;;;5041987;28;20193;-76
2022/06/01 06:11:41;;;;;;;1.15;0.40;;;13.70;99.90;;;;;;5049058;28;20200;-75
2022/06/01 06:14:12;;;;;;;1.30;0.40;;;13.70;99.90;;;;;;5052345;28;20190;-73
2022/06/01 06:16:45;;;;;;;0.65;0.35;;;13.60;99.90;;;;;;5045318;28;20645;-75
2022/06/01 06:19:16;;;;;;;0.57;0.38;;;13.60;99.90;;;;;;5046158;28;20285;-76
2022/06/01 06:21:47;;;;;;;1.30;0.30;;;13.60;99.90;;;;;;5052435;28;20206;-76
2022/06/01 06:24:19;;;;;;;1.50;0.40;;;13.50;99.90;;;;;;5050672;28;20190;-76
2022/06/01 06:26:50;;;;;;;0.30;0.30;;;13.50;99.90;;;;;;5051520;28;20210;-76
2022/06/01 06:29:22;;;;;;;0.47;0.40;;;13.40;99.90;;;;;;5050235;28;20193;-75
2022/06/01 06:31:54;;;;;;;0.65;0.35;;;13.40;99.90;;;;;;5052989;28;20189;-76
2022/06/01 06:34:25;;;;;;;1.48;0.40;;;13.30;99.90;;;;;;5053080;28;20736;-76
2022/06/01 06:36:58;;;;;;;0.98;0.30;;;13.30;99.90;;;;;;5050194;28;20194;-75
2022/06/01 06:39:29;;;;;;;2.97;0.40;;;13.20;99.90;;;;;;5049731;28;20197;-75
2022/06/01 06:41:59;;;;;;;1.17;0.40;;;13.20;99.90;;;;;;5049444;28;20209;-74
2022/06/01 06:44:30;;;;;;;2.38;0.40;;;13.20;99.90;;;;;;5049292;28;20187;-75
2022/06/01 06:47:03;;;;;;;0.57;0.30;;;13.20;99.90;;;;;;5046725;28;20205;-77
2022/06/01 06:49:34;;;;;;;1.58;0.60;;;13.10;99.90;;;;;;5050017;28;20197;-76
2022/06/01 06:52:04;;;;;;;1.13;0.60;;;13.00;99.90;;;;;;5046290;28;20276;-74
2022/06/01 06:54:35;;;;;;;0.85;0.47;;;13.00;99.90;;;;;;5047177;28;20224;-77
2022/06/01 06:57:06;;;;;;;2.20;0.88;;;12.90;99.90;;;;;;5043990;28;20269;-74
2022/06/01 06:59:37;;;;;;;1.88;0.50;;;12.90;99.90;;;;;;5051019;28;20671;-74
2022/06/01 07:02:10;;;;;;;0.95;0.30;;;12.80;99.90;;;;;;5045035;28;20231;-76
2022/06/01 07:04:40;;;;;;;0.95;0.40;;;12.80;99.90;;;;;;5047692;28;20225;-76
2022/06/01 07:07:11;;;;;;;1.83;0.40;;;12.80;99.90;;;;;;5043221;28;20218;-76
2022/06/01 07:09:42;;;;;;;1.40;0.40;;;12.80;99.90;;;;;;5046076;28;20182;-76
2022/06/01 07:12:13;;;;;;;0.63;0.40;;;12.70;99.90;;;;;;5047701;28;20191;-75
2022/06/01 07:14:43;;;;;;;0.60;0.47;;;12.60;99.90;;;;;;5049323;28;20633;-75
2022/06/01 07:17:16;;;;;;;2.22;0.50;;;12.60;99.90;;;;;;5054893;28;20196;-77
2022/06/01 07:19:46;;;;;;;1.35;0.47;;;12.50;99.90;;;;;;5056358;28;20197;-76
2022/06/01 07:22:17;;;;;;;1.13;0.50;;;12.60;99.90;;;;;;5056088;28;20217;-76
2022/06/01 07:24:48;;;;;;;1.52;0.40;;;12.50;99.90;;;;;;5055642;28;20232;-75
2022/06/01 07:27:19;;;;;;;0.40;0.40;;;12.50;99.90;;;;;;5056122;28;20190;-76
2022/06/01 07:29:50;;;;;;;3.40;0.60;;;12.50;99.90;;;;;;5056156;28;20193;-75
2022/06/01 07:32:24;;;;;;;1.58;0.40;;;12.50;99.90;;;;;;5055737;28;20198;-75
2022/06/01 07:34:55;;;;;;;1.02;0.60;;;12.40;99.90;;;;;;5056113;28;20193;-75
2022/06/01 07:43:08;;;;;;;1.10;0.50;;;12.40;99.90;;;;;;5039988;28;20232;-76
2022/06/01 07:45:40;;;;;;;1.50;0.50;;;12.40;99.90;;;;;;5054208;28;20200;-79
2022/06/01 07:48:13;;;;;;;0.55;0.40;;;12.40;99.90;;;;;;5054336;28;20251;-76
2022/06/01 07:50:44;;;;;;;1.58;0.40;;;12.40;99.90;;;;;;5054207;28;20202;-76
2022/06/01 07:53:16;;;;;;;0.40;0.30;;;12.40;99.90;;;;;;5055217;28;20190;-76
2022/06/01 07:55:47;;;;;;;0.95;0.50;;;12.30;99.90;;;;;;5054717;28;20585;-75
2022/06/01 07:58:18;;;;;;;0.50;0.40;;;12.30;99.90;;;;;;5055728;28;20185;-74
2022/06/01 08:00:48;;;;;;;3.00;0.75;;;12.30;99.90;;;;;;5054183;28;20204;-74
2022/06/01 08:03:22;;;;;;;0.88;0.50;;;12.30;99.90;;;;;;5053936;28;20316;-78
2022/06/01 08:05:52;;;;;;;0.40;0.40;;;12.30;99.90;;;;;;5054753;28;20285;-75
2022/06/01 08:08:23;;;;;;;2.75;0.50;;;12.30;99.90;;;;;;5050810;28;20229;-77
2022/06/01 08:10:54;;;;;;;0.85;0.50;;;12.20;99.90;;;;;;5055606;28;20644;-76
2022/06/01 08:13:23;;;;;;;1.60;0.47;;;12.20;99.90;;;;;;5055159;28;20201;-74
2022/06/01 08:15:55;;;;;;;1.60;0.55;;;12.20;99.90;;;;;;5054057;28;20538;-75
2022/06/01 08:18:28;;;;;;;1.45;0.45;;;12.20;99.90;;;;;;5054779;28;20221;-77
2022/06/01 08:20:58;;;;;;;0.95;0.55;;;12.20;99.90;;;;;;5055240;28;20189;-76
2022/06/01 08:23:30;;;;;;;0.77;0.60;;;12.20;99.90;;;;;;5054290;28;20778;-76
2022/06/01 08:26:01;;;;;;;1.25;0.65;;;12.20;99.90;;;;;;5054639;28;20672;-77
2022/06/01 08:28:32;;;;;;;0.40;0.40;;;12.20;99.90;;;;;;5053029;28;20224;-75
2022/06/01 08:31:03;;;;;;;0.50;0.40;;;12.10;99.90;;;;;;5053252;28;20205;-74
2022/06/01 08:33:36;;;;;;;1.33;0.52;;;12.10;99.90;;;;;;5055013;28;20540;-75
2022/06/01 08:36:07;;;;;;;0.90;0.50;;;12.00;99.90;;;;;;5055452;28;20185;-77
2022/06/01 08:38:38;;;;;;;1.40;0.50;;;12.00;99.90;;;;;;5058896;28;20205;-76
2022/06/01 08:41:11;;;;;;;0.50;0.40;;;12.00;99.90;;;;;;5054356;28;20189;-77
2022/06/01 08:43:46;;;;;;;0.85;0.40;;;12.00;99.90;;;;;;5052559;28;20247;-76
2022/06/01 08:46:17;;;;;;;0.50;0.50;;;12.00;99.90;;;;;;5052178;28;20193;-75
2022/06/01 08:48:54;;;;;;;0.85;0.40;;;11.90;99.90;;;;;;5053628;28;20205;-76
2022/06/01 08:51:27;;;;;;;0.40;0.40;;;11.90;99.90;;;;;;5054874;28;20652;-74
2022/06/01 08:53:58;;;;;;;0.88;0.50;;;11.90;99.90;;;;;;5058172;28;20604;-77
2022/06/01 08:56:35;;;;;;;0.45;0.40;;;11.90;99.90;;;;;;5061976;28;20189;-75
2022/06/01 08:59:15;;;;;;;1.27;0.60;;;11.90;99.90;;;;;;5055485;28;20206;-75
2022/06/01 09:01:53;;;;;;;3.15;0.80;;;11.80;99.90;;;;;;5048670;28;20217;-77
2022/06/01 09:04:32;;;;;;;2.40;0.63;;;11.80;99.90;;;;;;5047735;28;20229;-75
2022/06/01 09:07:13;;;;;;;1.73;0.60;;;11.80;99.90;;;;;;5050234;28;20228;-76
2022/06/01 09:09:53;;;;;;;1.60;0.50;;;11.80;99.90;;;;;;5050917;28;20678;-77
2022/06/01 09:12:24;;;;;;;0.80;0.55;;;11.80;99.90;;;;;;5049194;28;20200;-75
2022/06/01 09:14:59;;;;;;;1.85;0.60;;;11.80;99.90;;;;;;5053454;28;20202;-77
2022/06/01 09:17:30;;;;;;;1.00;0.60;;;11.80;99.90;;;;;;5053107;28;20200;-76
2022/06/01 09:22:53;;;;;;;2.33;0.70;;;11.70;99.90;;;;;;5048472;28;20220;-78
2022/06/01 09:25:32;;;;;;;1.08;0.70;;;11.70;99.90;;;;;;5054164;28;20197;-76
2022/06/01 09:28:07;;;;;;;0.73;0.70;;;11.60;99.90;;;;;;5054062;28;20189;-77
2022/06/01 09:30:39;;;;;;;1.40;0.70;;;11.60;99.90;;;;;;5053815;28;20193;-76
2022/06/01 09:33:22;;;;;;;0.98;0.70;;;11.50;99.90;;;;;;5054047;28;20193;-76
2022/06/01 09:36:17;;;;;;;2.05;0.80;;;11.50;99.90;;;;;;5054044;28;20269;-77
2022/06/01 09:38:53;;;;;;;1.50;0.70;;;11.50;99.90;;;;;;5053829;28;20305;-76
2022/06/01 09:41:31;;;;;;;1.20;0.70;;;11.40;99.90;;;;;;5053770;28;20225;-76
2022/06/01 09:44:04;;;;;;;1.73;0.70;;;11.40;99.90;;;;;;5046355;28;20240;-80
2022/06/01 09:46:37;;;;;;;0.77;0.60;;;11.40;99.90;;;;;;5053646;28;20186;-75
2022/06/01 09:49:11;;;;;;;1.30;0.57;;;11.30;99.90;;;;;;5053883;28;20210;-76
2022/06/01 09:51:44;;;;;;;0.85;0.65;;;11.20;99.90;;;;;;5053513;28;20193;-77
2022/06/01 09:54:27;;;;;;;0.85;0.60;;;11.20;99.90;;;;;;5053742;28;20637;-76
2022/06/01 09:56:58;;;;;;;1.77;0.80;;;11.20;99.90;;;;;;5053226;28;20185;-77
2022/06/01 10:08:23;;;;;;;2.75;1.00;;;11.10;99.90;;;;;;5010648;28;20777;-77
2022/06/01 10:11:02;;;;;;;1.70;1.10;;;11.10;99.90;;;;;;5038692;28;20204;-76
2022/06/01 10:13:36;;;;;;;1.38;1.17;;;11.10;99.90;;;;;;5053400;28;20605;-76
2022/06/01 10:16:18;;;;;;;2.30;1.27;;;11.10;99.90;;;;;;5053045;28;20200;-76
2022/06/01 10:18:50;;;;;;;1.75;1.20;;;11.00;99.90;;;;;;5052981;28;20192;-77
2022/06/01 10:21:26;;;;;;;3.30;1.60;;;11.00;99.90;;;;;;5053039;28;20209;-76
2022/06/01 10:24:04;;;;;;;2.20;1.42;;;11.00;99.90;;;;;;5053310;28;20270;-76
2022/06/01 10:26:38;;;;;;;2.50;1.20;;;11.00;99.90;;;;;;5052711;28;20193;-77
2022/06/01 10:29:13;;;;;;;2.40;1.30;;;11.00;99.90;;;;;;5053173;28;20248;-76
2022/06/01 10:31:46;;;;;;;1.98;1.10;;;11.00;99.90;;;;;;5045088;28;20277;-75
2022/06/01 10:34:23;;;;;;;2.83;1.38;;;11.00;99.90;;;;;;5053048;28;20706;-77
2022/06/01 10:36:58;;;;;;;1.25;1.00;;;10.90;99.90;;;;;;5045838;28;20189;-76
2022/06/01 10:39:34;;;;;;;3.38;1.17;;;10.90;99.90;;;;;;5052738;28;20189;-76
2022/06/01 10:42:10;;;;;;;1.75;1.10;;;10.80;99.90;;;;;;5052777;28;20271;-77
2022/06/01 10:44:47;;;;;;;0.70;0.70;;;10.80;99.90;;;;;;5052832;28;20268;-76
2022/06/01 10:47:22;;;;;;;2.13;0.82;;;10.80;99.90;;;;;;5049353;28;20182;-77
2022/06/01 10:50:00;;;;;;;1.05;0.90;;;10.80;99.90;;;;;;5057383;28;20243;-77
2022/06/01 10:52:35;;;;;;;1.13;0.70;;;10.80;99.90;;;;;;5052493;28;20209;-77
2022/06/01 10:55:17;;;;;;;1.00;0.75;;;10.80;99.90;;;;;;5042224;28;20630;-75
2022/06/01 10:57:48;;;;;;;1.92;1.00;;;10.90;99.90;;;;;;5051621;28;20239;-77
2022/06/01 11:00:21;;;;;;;1.98;0.80;;;10.80;99.90;;;;;;5049867;28;20193;-75
2022/06/01 11:03:20;;;;;;;1.85;0.90;;;10.80;99.90;;;;;;5051602;28;20217;-77
2022/06/01 11:05:59;;;;;;;1.67;0.80;;;10.90;99.90;;;;;;5048866;28;20669;-76
2022/06/01 11:08:45;;;;;;;1.58;1.05;;;10.90;99.90;;;;;;5051541;28;20186;-75
2022/06/01 11:11:24;;;;;;;1.00;0.90;;;10.90;99.90;;;;;;5052676;28;20631;-75
2022/06/01 11:14:14;;;;;;;2.55;1.25;;;10.90;99.90;;;;;;5052109;28;20205;-76
2022/06/01 11:16:56;;;;;;;2.90;1.00;;;10.90;99.90;;;;;;5052396;28;20599;-77
2022/06/01 11:19:37;;;;;;;4.05;0.95;;;10.90;99.90;;;;;;5051949;28;20196;-78
2022/06/01 11:22:16;;;;;;;1.95;1.10;;;10.90;99.90;;;;;;5052341;28;20209;-76
2022/06/01 11:25:10;;;;;;;14.32;7.80;;;10.80;99.90;;;;;;5048771;28;20629;-78
2022/06/01 11:28:04;;;;;;;37.80;23.05;;;10.80;99.90;;;;;;5051282;28;20679;-76
2022/06/01 11:30:49;;;;;;;33.20;21.38;;;10.80;99.90;;;;;;5051348;28;20483;-76
2022/06/01 11:33:32;;;;;;;18.90;11.32;;;10.80;99.90;;;;;;5051985;28;20201;-77
2022/06/01 11:36:07;;;;;;;10.30;6.43;;;10.80;99.90;;;;;;5052351;28;20272;-77
2022/06/01 11:38:46;;;;;;;6.47;3.42;;;10.80;99.90;;;;;;5049737;28;20250;-76
2022/06/01 11:41:22;;;;;;;5.22;3.70;;;10.80;99.90;;;;;;5050643;28;20194;-75
2022/06/01 11:43:58;;;;;;;2.50;1.95;;;10.80;99.90;;;;;;5043036;28;20625;-75
2022/06/01 11:46:40;;;;;;;2.33;1.35;;;10.80;99.90;;;;;;5051140;28;20189;-75
2022/06/01 11:49:15;;;;;;;3.88;1.98;;;10.80;99.90;;;;;;5053269;28;20202;-76
2022/06/01 11:51:51;;;;;;;2.40;1.45;;;10.80;99.90;;;;;;5058579;28;20262;-76
2022/06/01 11:54:35;;;;;;;2.53;1.20;;;10.80;99.90;;;;;;5048211;28;20235;-75
2022/06/01 11:57:24;;;;;;;1.98;1.10;;;10.80;99.90;;;;;;5050024;28;20284;-76
2022/06/01 12:00:07;;;;;;;2.22;1.08;;;10.80;99.90;;;;;;5050131;28;20206;-75
2022/06/01 12:02:45;;;;;;;1.17;1.00;;;10.70;99.90;;;;;;5048446;28;20272;-76
2022/06/01 12:05:23;;;;;;;0.75;0.75;;;10.70;99.90;;;;;;5043896;28;20347;-77
2022/06/01 12:07:57;;;;;;;1.63;0.80;;;10.70;99.90;;;;;;5052852;28;20248;-76
2022/06/01 12:10:29;;;;;;;1.75;0.63;;;10.70;99.90;;;;;;5049631;28;20206;-76
2022/06/01 12:13:07;;;;;;;1.88;0.70;;;10.70;99.90;;;;;;5051150;28;20262;-77
2022/06/01 12:16:04;;;;;;;0.75;0.70;;;10.70;99.90;;;;;;5051999;28;20202;-76
2022/06/01 12:18:36;;;;;;;1.27;0.70;;;10.70;99.90;;;;;;5051340;28;20186;-76
2022/06/01 12:21:38;;;;;;;1.15;0.40;;;10.70;99.90;;;;;;5053882;28;20205;-77
2022/06/01 12:30:17;;;;;;;0.50;0.50;;;10.90;99.90;;;;;;5055105;28;20205;-77
2022/06/01 12:33:11;;;;;;;0.85;0.45;;;10.90;99.90;;;;;;5046909;28;20189;-79
2022/06/01 12:35:57;;;;;;;1.48;0.40;;;10.90;99.90;;;;;;5052530;28;20636;-78
2022/06/01 12:38:33;;;;;;;0.80;0.50;;;10.90;99.90;;;;;;5050048;28;20732;-78
2022/06/01 12:41:11;;;;;;;0.65;0.30;;;10.90;99.90;;;;;;5052436;28;20201;-78
2022/06/01 12:43:47;;;;;;;1.13;0.63;;;11.00;99.90;;;;;;5049748;28;20263;-76
2022/06/01 12:46:26;;;;;;;1.98;0.40;;;11.00;99.90;;;;;;5058218;28;20274;-78
2022/06/01 12:49:28;;;;;;;0.63;0.40;;;10.90;99.90;;;;;;5047034;28;20786;-80
2022/06/01 12:52:01;;;;;;;1.10;0.50;;;11.00;99.90;;;;;;5048952;28;20232;-78
2022/06/01 12:54:33;;;;;;;0.50;0.50;;;11.00;99.90;;;;;;5052367;28;20205;-77
2022/06/01 12:57:05;;;;;;;4.20;0.60;;;11.00;99.90;;;;;;5054202;28;20612;-79
2022/06/01 12:59:38;;;;;;;1.92;0.50;;;11.00;99.90;;;;;;5052727;28;20284;-79
2022/06/01 13:02:13;;;;;;;0.85;0.40;;;11.00;99.90;;;;;;5051223;28;20197;-77
2022/06/01 13:04:54;;;;;;;0.98;0.60;;;11.10;99.90;;;;;;5050597;28;20245;-80
2022/06/01 13:07:31;;;;;;;1.10;0.60;;;11.10;99.90;;;;;;5052373;28;22306;-78
2022/06/01 13:10:03;;;;;;;0.35;0.35;;;11.10;99.90;;;;;;5048759;28;20276;-78
2022/06/01 13:12:35;;;;;;;0.55;0.50;;;11.00;99.90;;;;;;5047874;28;20193;-79
2022/06/01 13:15:16;;;;;;;1.23;0.60;;;11.10;99.90;;;;;;5046812;28;20198;-75
2022/06/01 13:17:53;;;;;;;1.95;0.47;;;11.10;99.90;;;;;;5046225;28;20648;-77
2022/06/01 13:20:35;;;;;;;1.45;0.50;;;11.00;99.90;;;;;;5050385;28;20223;-76
2022/06/01 13:23:08;;;;;;;0.80;0.50;;;11.10;99.90;;;;;;5049119;28;20296;-77
2022/06/01 13:25:40;;;;;;;1.20;0.50;;;11.00;99.90;;;;;;5049604;28;20718;-75
2022/06/01 13:28:13;;;;;;;0.50;0.43;;;11.00;99.90;;;;;;5048490;28;20210;-74
2022/06/01 13:30:47;;;;;;;2.00;0.50;;;11.10;99.90;;;;;;5051144;28;20201;-76
2022/06/01 13:33:26;;;;;;;0.65;0.60;;;11.10;99.90;;;;;;5055302;28;20208;-74
2022/06/01 13:36:03;;;;;;;1.40;0.45;;;11.10;99.90;;;;;;5052578;28;20702;-75
2022/06/01 13:38:42;;;;;;;0.52;0.45;;;11.10;99.90;;;;;;5049821;28;20193;-74
2022/06/01 13:41:16;;;;;;;1.20;0.40;;;11.00;99.90;;;;;;5055235;28;20185;-75
2022/06/01 13:43:49;;;;;;;1.75;0.60;;;11.10;99.90;;;;;;5050386;28;20770;-75
2022/06/01 13:46:28;;;;;;;1.10;0.50;;;11.00;99.90;;;;;;5048149;28;20331;-74
2022/06/01 13:48:59;;;;;;;0.40;0.30;;;11.00;99.90;;;;;;5045852;28;20190;-75
2022/06/01 13:51:39;;;;;;;1.25;0.43;;;11.00;99.90;;;;;;5048394;28;20205;-75
2022/06/01 13:54:24;;;;;;;0.82;0.50;;;11.00;99.90;;;;;;5047430;28;20738;-75
2022/06/01 13:57:04;;;;;;;1.35;0.50;;;11.00;99.90;;;;;;5050804;28;20284;-74
2022/06/01 13:59:37;;;;;;;0.85;0.57;;;10.90;99.90;;;;;;5049700;28;20277;-77